Time;durP1;ratioP1;P1;durP2;ratioP2;P2;SDS_P1;SDS_P2;PMS_P1;PMS_P2;Temp;Humidity;BMP_temperature;BMP_pressure;BME280_temperature;BME280_humidity;BME280_pressure;Samples;Min_cycle;Max_cycle;Signal;HPM_P1;HPM_P2
2022/03/18 00:00:33;;;;;;;43.58;6.38;;;6.60;88.90;;;;;;4920472;29;20048;-70
2022/03/18 00:03:01;;;;;;;44.42;6.60;;;6.40;88.90;;;;;;4937172;29;20062;-70
2022/03/18 00:05:29;;;;;;;43.55;6.47;;;6.40;89.10;;;;;;4937006;29;20061;-70
2022/03/18 00:07:57;;;;;;;43.55;6.05;;;6.40;89.10;;;;;;4937055;29;20047;-70
2022/03/18 00:10:25;;;;;;;44.35;6.18;;;6.30;89.20;;;;;;4936812;29;20052;-70
2022/03/18 00:12:53;;;;;;;34.63;5.40;;;6.20;89.30;;;;;;4937220;29;20059;-70
2022/03/18 00:15:23;;;;;;;34.47;5.88;;;6.20;89.40;;;;;;4937096;29;20055;-70
2022/03/18 00:17:51;;;;;;;45.72;7.07;;;6.20;89.60;;;;;;4936889;29;20421;-70
2022/03/18 00:20:19;;;;;;;34.30;7.40;;;6.20;89.60;;;;;;4936909;29;20056;-69
2022/03/18 00:22:48;;;;;;;41.03;7.57;;;6.20;89.70;;;;;;4936517;29;20060;-70
2022/03/18 00:25:17;;;;;;;44.78;9.30;;;6.30;89.60;;;;;;4936703;29;20075;-70
2022/03/18 00:27:46;;;;;;;42.30;9.20;;;6.30;89.50;;;;;;4936301;29;20409;-70
2022/03/18 00:30:17;;;;;;;44.78;9.10;;;6.40;89.50;;;;;;4951606;29;20050;-70
2022/03/18 00:32:46;;;;;;;43.05;8.15;;;6.40;89.40;;;;;;4922398;29;20157;-70
2022/03/18 00:35:34;;;;;;;40.35;8.52;;;6.40;89.40;;;;;;4943437;29;20050;-70
2022/03/18 00:38:02;;;;;;;44.53;7.78;;;6.50;89.30;;;;;;4955872;29;20043;-70
2022/03/18 00:40:31;;;;;;;45.17;8.65;;;6.40;89.30;;;;;;4955537;29;20040;-70
2022/03/18 00:43:00;;;;;;;46.40;8.95;;;6.40;89.30;;;;;;4955584;29;20058;-70
2022/03/18 00:45:29;;;;;;;41.20;9.15;;;6.40;89.30;;;;;;4954596;29;20062;-70
2022/03/18 00:53:30;;;;;;;36.10;7.65;;;6.30;89.40;;;;;;4953750;29;20067;-70
2022/03/18 00:55:58;;;;;;;34.92;6.55;;;6.20;89.30;;;;;;4938274;29;20054;-70
2022/03/18 00:58:25;;;;;;;46.67;7.13;;;6.00;89.30;;;;;;4938423;29;20051;-70
2022/03/18 01:00:53;;;;;;;44.15;8.35;;;5.90;89.20;;;;;;4955275;29;20500;-70
2022/03/18 01:03:21;;;;;;;39.65;8.00;;;5.80;89.30;;;;;;4937999;29;20058;-70
2022/03/18 01:05:49;;;;;;;44.88;9.05;;;5.70;89.50;;;;;;4938033;29;20059;-70
2022/03/18 01:08:16;;;;;;;49.97;8.52;;;5.50;89.70;;;;;;4937846;29;20058;-70
2022/03/18 01:10:45;;;;;;;45.30;7.97;;;5.50;89.80;;;;;;4940595;29;20051;-70
2022/03/18 01:13:13;;;;;;;46.45;7.18;;;5.30;89.70;;;;;;4935916;29;20095;-70
2022/03/18 01:15:41;;;;;;;36.83;7.97;;;5.30;89.80;;;;;;4934543;29;20048;-70
2022/03/18 01:18:08;;;;;;;42.88;7.30;;;5.10;89.70;;;;;;4935824;29;20382;-70
2022/03/18 01:20:36;;;;;;;34.55;6.22;;;5.00;89.70;;;;;;4935099;29;20052;-70
2022/03/18 01:23:06;;;;;;;57.08;11.93;;;4.80;89.70;;;;;;4934435;29;20063;-70
2022/03/18 01:25:35;;;;;;;59.40;11.77;;;4.80;89.90;;;;;;4934790;29;20494;-70
2022/03/18 01:28:03;;;;;;;48.15;11.18;;;4.70;90.40;;;;;;4935529;29;20040;-70
2022/03/18 01:30:31;;;;;;;56.97;11.25;;;4.70;90.70;;;;;;4923961;29;20548;-70
2022/03/18 01:33:01;;;;;;;53.95;12.27;;;4.70;90.60;;;;;;4934264;29;20221;-70
2022/03/18 01:35:30;;;;;;;51.22;11.88;;;4.60;90.60;;;;;;4932495;29;20054;-70
2022/03/18 01:37:57;;;;;;;52.03;12.20;;;4.70;90.60;;;;;;4935041;29;20051;-70
2022/03/18 01:40:25;;;;;;;38.17;9.77;;;4.60;90.40;;;;;;4918255;29;20501;-70
2022/03/18 01:42:52;;;;;;;50.47;9.40;;;4.50;90.60;;;;;;4918451;29;20047;-70
2022/03/18 01:45:20;;;;;;;50.13;10.25;;;4.50;90.90;;;;;;4936876;29;20059;-70
2022/03/18 01:47:48;;;;;;;49.65;9.52;;;4.50;91.20;;;;;;4944444;29;20379;-70
2022/03/18 01:50:16;;;;;;;49.30;10.98;;;4.60;91.30;;;;;;4934741;29;20051;-70
2022/03/18 01:52:45;;;;;;;43.42;10.30;;;4.60;91.10;;;;;;4934100;29;20406;-70
2022/03/18 01:55:16;;;;;;;58.20;10.93;;;4.60;91.00;;;;;;4935376;29;20043;-70
2022/03/18 01:57:44;;;;;;;40.35;8.85;;;4.70;91.10;;;;;;4935181;29;20502;-70
2022/03/18 02:00:13;;;;;;;41.35;9.00;;;4.70;91.20;;;;;;4935003;29;20406;-70
2022/03/18 02:02:41;;;;;;;50.33;10.70;;;4.80;91.20;;;;;;4934773;29;20073;-70
2022/03/18 02:05:10;;;;;;;39.30;8.10;;;4.90;91.20;;;;;;4935029;29;20054;-70
2022/03/18 02:07:38;;;;;;;44.78;9.85;;;4.90;91.10;;;;;;4934245;29;20059;-70
2022/03/18 02:10:06;;;;;;;36.03;8.40;;;5.00;91.00;;;;;;4935140;29;20394;-70
2022/03/18 02:12:35;;;;;;;35.78;8.38;;;5.00;90.80;;;;;;4934543;29;20051;-70
2022/03/18 02:15:04;;;;;;;45.30;9.95;;;5.00;90.80;;;;;;4934997;29;20402;-70
2022/03/18 02:17:31;;;;;;;39.85;9.85;;;5.00;90.80;;;;;;4934824;29;20064;-70
2022/03/18 02:19:59;;;;;;;51.00;9.65;;;5.10;90.90;;;;;;4934537;29;20043;-69
2022/03/18 02:22:28;;;;;;;42.20;9.60;;;5.10;90.80;;;;;;4949815;29;20664;-70
2022/03/18 02:24:56;;;;;;;47.47;8.65;;;5.10;90.70;;;;;;4934868;29;20048;-70
2022/03/18 02:27:23;;;;;;;46.47;8.57;;;5.00;90.60;;;;;;4934762;29;20413;-70
2022/03/18 02:29:51;;;;;;;47.10;9.63;;;5.00;90.60;;;;;;4934941;29;20052;-69
2022/03/18 02:32:19;;;;;;;37.72;8.80;;;5.00;90.60;;;;;;4935054;29;20059;-69
2022/03/18 02:34:47;;;;;;;41.33;9.57;;;4.90;90.40;;;;;;4934815;29;20427;-69
2022/03/18 02:37:15;;;;;;;37.65;9.35;;;4.80;90.50;;;;;;4934634;29;20055;-69
2022/03/18 02:39:43;;;;;;;42.72;8.95;;;4.80;90.50;;;;;;4933985;29;20067;-69
2022/03/18 02:42:11;;;;;;;44.63;10.30;;;4.60;90.40;;;;;;4917663;29;20055;-70
2022/03/18 02:44:38;;;;;;;48.72;10.75;;;4.50;90.30;;;;;;4918120;29;20055;-69
2022/03/18 02:47:06;;;;;;;43.58;11.35;;;4.50;90.50;;;;;;4917899;29;20162;-69
2022/03/18 02:49:34;;;;;;;55.17;11.45;;;4.40;90.70;;;;;;4934593;29;20058;-69
2022/03/18 02:52:01;;;;;;;44.13;11.25;;;4.30;90.80;;;;;;4933646;29;20066;-70
2022/03/18 02:54:29;;;;;;;52.90;11.90;;;4.30;90.90;;;;;;4917808;29;20066;-70
2022/03/18 02:56:57;;;;;;;45.08;12.55;;;4.10;90.70;;;;;;4920410;29;20044;-70
2022/03/18 02:59:24;;;;;;;50.88;11.10;;;4.10;90.70;;;;;;4924707;29;20406;-70
2022/03/18 03:01:52;;;;;;;49.95;12.52;;;4.00;90.70;;;;;;4934954;29;20056;-70
2022/03/18 03:04:20;;;;;;;50.83;14.07;;;3.90;90.70;;;;;;4917619;29;20505;-70
2022/03/18 03:09:34;;;;;;;57.50;14.43;;;3.80;90.90;;;;;;4934745;29;20063;-70
2022/03/18 03:12:01;;;;;;;49.58;13.32;;;3.80;90.90;;;;;;4934815;29;20058;-70
2022/03/18 03:14:29;;;;;;;51.13;12.25;;;3.70;90.80;;;;;;4934592;29;20058;-69
2022/03/18 03:16:57;;;;;;;44.75;13.00;;;3.60;90.80;;;;;;4934537;29;20048;-69
2022/03/18 03:19:24;;;;;;;44.20;12.75;;;3.50;90.60;;;;;;4933097;29;20063;-69
2022/03/18 03:21:52;;;;;;;44.50;13.10;;;3.40;90.70;;;;;;4934450;29;20063;-70
2022/03/18 03:24:19;;;;;;;46.35;13.48;;;3.30;90.70;;;;;;4934327;29;20071;-70
2022/03/18 03:26:47;;;;;;;47.67;13.98;;;3.30;90.70;;;;;;4933361;29;20444;-70
2022/03/18 03:29:15;;;;;;;56.38;15.27;;;3.30;90.80;;;;;;4933505;29;20059;-70
2022/03/18 03:31:42;;;;;;;46.83;13.55;;;3.20;90.80;;;;;;4920442;29;20055;-70
2022/03/18 03:34:10;;;;;;;51.95;14.70;;;3.20;90.90;;;;;;4937482;29;20040;-69
2022/03/18 03:36:38;;;;;;;60.38;16.55;;;3.10;90.90;;;;;;4938109;29;20415;-69
2022/03/18 03:39:05;;;;;;;63.80;16.58;;;3.00;90.90;;;;;;4937767;29;20414;-69
2022/03/18 03:41:33;;;;;;;48.75;16.02;;;3.00;91.00;;;;;;4937523;29;20055;-68
2022/03/18 03:44:01;;;;;;;52.28;15.77;;;3.00;91.10;;;;;;4905026;29;20062;-70
2022/03/18 03:46:28;;;;;;;55.80;16.60;;;3.00;91.40;;;;;;4937338;29;20505;-68
2022/03/18 03:48:56;;;;;;;49.25;15.93;;;3.10;91.60;;;;;;4937478;29;20052;-69
2022/03/18 03:51:24;;;;;;;50.33;15.05;;;3.10;91.80;;;;;;4920412;29;20053;-71
2022/03/18 03:53:51;;;;;;;47.75;14.55;;;3.10;91.70;;;;;;4920388;29;20052;-70
2022/03/18 03:56:19;;;;;;;58.85;16.38;;;3.10;91.40;;;;;;4920332;29;20060;-70
2022/03/18 03:58:47;;;;;;;74.65;19.20;;;3.00;91.30;;;;;;4937171;29;20051;-70
2022/03/18 04:01:14;;;;;;;59.83;17.35;;;3.00;91.50;;;;;;4937201;29;20047;-70
2022/03/18 04:03:45;;;;;;;57.38;16.73;;;2.90;91.30;;;;;;4946409;29;20062;-71
2022/03/18 04:06:13;;;;;;;54.58;16.15;;;2.80;91.20;;;;;;4939205;29;20043;-70
2022/03/18 04:08:41;;;;;;;56.08;15.75;;;2.80;91.10;;;;;;4936968;29;20058;-71
2022/03/18 04:11:08;;;;;;;67.53;17.52;;;2.80;91.20;;;;;;4936946;29;20047;-69
2022/03/18 04:13:36;;;;;;;57.92;15.18;;;2.70;91.20;;;;;;4935719;29;20054;-70
2022/03/18 04:16:05;;;;;;;51.42;14.07;;;2.70;91.20;;;;;;4935748;29;20050;-70
2022/03/18 04:18:32;;;;;;;41.28;13.00;;;2.60;91.00;;;;;;4936783;29;20047;-71
2022/03/18 04:21:00;;;;;;;49.72;12.93;;;2.50;90.90;;;;;;4937035;29;20044;-70
2022/03/18 04:23:27;;;;;;;46.15;15.02;;;2.40;90.90;;;;;;4936810;29;20044;-70
2022/03/18 04:25:55;;;;;;;57.92;18.02;;;2.30;90.90;;;;;;4936775;29;20406;-70
2022/03/18 04:28:22;;;;;;;48.17;16.67;;;2.30;91.00;;;;;;4937012;29;20378;-70
2022/03/18 04:30:50;;;;;;;60.83;16.25;;;2.20;91.10;;;;;;4936821;29;20051;-70
2022/03/18 04:33:18;;;;;;;44.70;14.02;;;2.20;91.30;;;;;;4919671;29;20052;-69
2022/03/18 04:35:45;;;;;;;46.10;14.05;;;2.20;91.30;;;;;;4936709;29;20050;-70
2022/03/18 04:38:13;;;;;;;30.05;12.02;;;2.10;91.20;;;;;;4935595;29;20164;-68
2022/03/18 04:40:41;;;;;;;49.22;14.98;;;2.10;91.20;;;;;;4935794;29;20205;-71
2022/03/18 04:43:08;;;;;;;38.90;14.57;;;2.00;91.10;;;;;;4936017;29;20051;-68
2022/03/18 04:45:36;;;;;;;39.85;13.32;;;2.00;91.20;;;;;;4936677;29;20048;-68
2022/03/18 04:48:04;;;;;;;47.13;16.35;;;1.90;91.20;;;;;;4936554;29;20047;-68
2022/03/18 04:50:32;;;;;;;43.00;14.98;;;1.90;91.20;;;;;;4919687;29;20051;-68
2022/03/18 04:52:59;;;;;;;49.70;16.58;;;1.80;91.20;;;;;;4936260;29;20058;-68
2022/03/18 04:55:27;;;;;;;42.33;13.98;;;1.80;91.20;;;;;;4936301;29;20078;-68
2022/03/18 04:57:55;;;;;;;45.13;15.95;;;1.80;91.20;;;;;;4935564;29;20055;-68
2022/03/18 05:00:24;;;;;;;45.47;16.30;;;1.80;91.30;;;;;;4927847;29;20160;-68
2022/03/18 05:02:52;;;;;;;58.65;18.63;;;1.80;91.50;;;;;;4916927;29;20064;-68
2022/03/18 05:05:20;;;;;;;59.88;18.70;;;1.80;91.60;;;;;;4915654;29;20063;-70
2022/03/18 05:07:54;;;;;;;65.15;19.48;;;1.80;91.50;;;;;;4916675;29;20048;-68
2022/03/18 05:10:22;;;;;;;59.47;20.48;;;1.80;91.70;;;;;;4931525;29;20040;-69
2022/03/18 05:12:51;;;;;;;72.70;20.95;;;1.80;91.90;;;;;;4935247;29;20087;-69
2022/03/18 05:15:19;;;;;;;55.15;21.38;;;1.90;91.90;;;;;;4927780;29;20051;-69
2022/03/18 05:17:52;;;;;;;53.95;18.73;;;1.90;91.80;;;;;;4943912;29;20048;-70
2022/03/18 05:20:21;;;;;;;60.30;19.90;;;1.80;91.60;;;;;;4935414;29;20059;-69
2022/03/18 05:22:51;;;;;;;60.67;21.35;;;1.80;91.50;;;;;;4902780;29;20043;-69
2022/03/18 05:25:19;;;;;;;74.50;21.05;;;1.80;91.60;;;;;;4908925;29;20104;-70
2022/03/18 05:27:49;;;;;;;59.00;18.75;;;1.80;91.60;;;;;;4933751;29;20056;-71
2022/03/18 05:30:18;;;;;;;58.45;19.50;;;1.70;91.40;;;;;;4935878;29;20496;-70
2022/03/18 05:32:45;;;;;;;57.97;18.52;;;1.60;91.30;;;;;;4934527;29;20048;-70
2022/03/18 05:35:13;;;;;;;65.40;19.92;;;1.50;91.40;;;;;;4935403;29;20055;-71
2022/03/18 05:37:41;;;;;;;54.15;17.52;;;1.50;91.50;;;;;;4935112;29;20054;-70
2022/03/18 05:40:10;;;;;;;56.42;16.00;;;1.50;91.70;;;;;;4934245;29;20070;-70
2022/03/18 05:42:40;;;;;;;58.72;19.67;;;1.60;91.90;;;;;;4935403;29;20109;-71
2022/03/18 05:45:08;;;;;;;52.35;17.33;;;1.60;92.10;;;;;;4934870;29;20402;-70
2022/03/18 05:47:35;;;;;;;94.47;20.70;;;1.70;92.20;;;;;;4917827;29;20059;-70
2022/03/18 05:50:05;;;;;;;183.15;23.20;;;1.70;92.30;;;;;;4922938;29;20063;-70
2022/03/18 05:52:34;;;;;;;280.52;27.67;;;1.80;92.40;;;;;;4935226;29;20055;-70
2022/03/18 05:55:03;;;;;;;223.82;24.35;;;1.80;92.40;;;;;;4934344;29;20051;-70
2022/03/18 05:57:32;;;;;;;187.50;23.15;;;1.80;92.30;;;;;;4934438;29;20044;-70
2022/03/18 06:00:01;;;;;;;336.52;30.10;;;1.80;92.20;;;;;;4934779;29;20043;-70
2022/03/18 06:02:40;;;;;;;393.60;36.63;;;1.80;92.30;;;;;;4935200;29;20509;-70
2022/03/18 06:05:09;;;;;;;247.70;26.83;;;1.80;92.20;;;;;;4935042;29;20054;-70
2022/03/18 06:07:38;;;;;;;282.02;27.65;;;1.80;92.30;;;;;;4934146;29;20058;-69
2022/03/18 06:12:53;;;;;;;189.80;26.92;;;1.80;92.40;;;;;;4921255;29;20402;-70
2022/03/18 06:15:20;;;;;;;324.63;28.48;;;1.80;92.50;;;;;;4933868;29;20067;-71
2022/03/18 06:17:48;;;;;;;257.38;29.52;;;1.90;92.50;;;;;;4934398;29;20051;-71
2022/03/18 06:20:16;;;;;;;413.55;33.00;;;2.00;92.60;;;;;;4939549;29;20165;-70
2022/03/18 06:22:43;;;;;;;333.80;33.28;;;2.00;92.60;;;;;;4934314;29;20058;-70
2022/03/18 06:25:11;;;;;;;441.45;36.45;;;2.00;92.70;;;;;;4934752;29;20055;-70
2022/03/18 06:27:38;;;;;;;372.13;33.67;;;2.10;92.80;;;;;;4916851;29;20060;-71
2022/03/18 06:30:06;;;;;;;541.42;42.85;;;2.10;92.80;;;;;;4932983;29;20055;-70
2022/03/18 06:32:34;;;;;;;320.90;35.53;;;2.20;92.80;;;;;;4934434;29;20052;-70
2022/03/18 06:35:02;;;;;;;249.45;34.95;;;2.20;92.90;;;;;;4934063;29;20043;-70
2022/03/18 06:37:29;;;;;;;223.65;29.92;;;2.30;92.90;;;;;;4934788;29;20490;-70
2022/03/18 06:39:57;;;;;;;469.73;38.72;;;2.30;93.00;;;;;;4930666;29;20477;-70
2022/03/18 06:42:25;;;;;;;616.50;43.55;;;2.40;93.00;;;;;;4934465;29;20035;-71
2022/03/18 06:44:52;;;;;;;563.60;44.88;;;2.50;93.00;;;;;;4917614;29;20064;-70
2022/03/18 06:47:21;;;;;;;390.40;35.70;;;2.50;93.00;;;;;;4934565;29;20044;-71
2022/03/18 06:49:48;;;;;;;353.65;31.15;;;2.50;93.00;;;;;;4934459;29;20490;-71
2022/03/18 06:52:16;;;;;;;382.52;33.08;;;2.60;92.90;;;;;;4934526;29;20055;-71
2022/03/18 06:54:44;;;;;;;688.80;41.38;;;2.60;92.90;;;;;;4931789;29;20054;-70
2022/03/18 06:57:12;;;;;;;570.13;40.08;;;2.60;92.80;;;;;;4933924;29;20413;-70
2022/03/18 06:59:40;;;;;;;683.05;48.30;;;2.60;92.80;;;;;;4925767;29;20048;-70
2022/03/18 07:02:09;;;;;;;449.30;38.35;;;2.60;92.80;;;;;;4930474;29;20055;-70
2022/03/18 07:04:36;;;;;;;523.25;37.45;;;2.70;92.80;;;;;;4930522;29;20063;-70
2022/03/18 07:07:04;;;;;;;287.77;29.73;;;2.70;92.80;;;;;;4933584;29;20052;-70
2022/03/18 07:09:33;;;;;;;477.13;38.28;;;2.70;92.80;;;;;;4936185;29;20055;-70
2022/03/18 07:12:00;;;;;;;348.52;34.70;;;2.70;92.70;;;;;;4929640;29;20052;-70
2022/03/18 07:14:28;;;;;;;308.67;32.88;;;2.70;92.60;;;;;;4920464;29;20040;-71
2022/03/18 07:19:43;;;;;;;121.18;25.88;;;2.70;92.50;;;;;;4935033;29;20063;-70
2022/03/18 07:22:12;;;;;;;233.88;30.27;;;2.60;92.40;;;;;;4936387;29;20046;-70
2022/03/18 07:24:39;;;;;;;250.05;33.97;;;2.60;92.40;;;;;;4937733;29;20070;-70
2022/03/18 07:27:07;;;;;;;311.70;37.15;;;2.60;92.40;;;;;;4936880;29;20040;-71
2022/03/18 07:29:36;;;;;;;84.55;24.67;;;2.70;92.40;;;;;;4919418;29;20056;-69
2022/03/18 07:32:04;;;;;;;152.98;27.15;;;2.60;92.40;;;;;;4932838;29;20055;-70
2022/03/18 07:34:32;;;;;;;101.55;29.20;;;2.60;92.40;;;;;;4936395;29;20039;-69
2022/03/18 07:37:00;;;;;;;124.65;32.92;;;2.60;92.40;;;;;;4936026;29;20044;-70
2022/03/18 07:39:27;;;;;;;84.43;28.85;;;2.60;92.50;;;;;;4930779;29;20413;-69
2022/03/18 07:41:55;;;;;;;80.85;30.48;;;2.70;92.50;;;;;;4919208;29;20043;-69
2022/03/18 07:44:23;;;;;;;68.85;28.58;;;2.70;92.60;;;;;;4937116;29;20406;-69
2022/03/18 07:46:50;;;;;;;72.40;28.88;;;2.80;92.70;;;;;;4936863;29;20051;-69
2022/03/18 07:49:18;;;;;;;82.97;31.75;;;2.80;92.70;;;;;;4936436;29;20055;-69
2022/03/18 07:51:46;;;;;;;95.32;36.63;;;2.90;92.70;;;;;;4930148;29;20059;-69
2022/03/18 07:54:13;;;;;;;77.70;31.55;;;3.00;92.80;;;;;;4935864;29;20083;-70
2022/03/18 07:56:41;;;;;;;88.65;35.15;;;3.00;92.80;;;;;;4936333;29;20035;-69
2022/03/18 07:59:09;;;;;;;96.20;36.33;;;3.10;92.90;;;;;;4935903;29;20051;-70
2022/03/18 08:01:38;;;;;;;107.88;40.97;;;3.20;92.90;;;;;;4933277;29;20052;-69
2022/03/18 08:04:08;;;;;;;113.13;42.72;;;3.30;92.90;;;;;;4918959;29;20402;-69
2022/03/18 08:06:36;;;;;;;104.45;40.67;;;3.40;93.00;;;;;;4918388;29;20051;-70
2022/03/18 08:09:04;;;;;;;108.50;42.08;;;3.50;93.00;;;;;;4936209;29;20498;-70
2022/03/18 08:11:33;;;;;;;118.07;45.33;;;3.60;93.00;;;;;;4918902;29;20517;-70
2022/03/18 08:14:01;;;;;;;122.47;45.42;;;3.80;93.00;;;;;;4935023;29;20055;-71
2022/03/18 08:16:28;;;;;;;105.80;42.22;;;3.80;93.00;;;;;;4917057;29;20047;-70
2022/03/18 08:18:57;;;;;;;111.05;43.67;;;4.00;93.00;;;;;;4936464;29;20056;-70
2022/03/18 08:21:25;;;;;;;99.28;39.85;;;4.10;93.00;;;;;;4918222;29;20525;-70
2022/03/18 08:23:52;;;;;;;112.55;43.42;;;4.20;92.90;;;;;;4935082;29;20047;-71
2022/03/18 08:26:20;;;;;;;113.00;45.33;;;4.30;92.80;;;;;;4919085;29;20048;-71
2022/03/18 08:28:47;;;;;;;101.93;44.28;;;4.50;92.80;;;;;;4936551;29;20524;-71
2022/03/18 08:31:15;;;;;;;109.93;49.70;;;4.60;92.80;;;;;;4936244;29;20062;-70
2022/03/18 08:33:43;;;;;;;100.18;44.60;;;4.80;92.80;;;;;;4936536;29;20043;-71
2022/03/18 08:36:10;;;;;;;103.35;44.58;;;4.90;92.70;;;;;;4936129;29;20074;-70
2022/03/18 08:38:40;;;;;;;96.88;42.78;;;5.00;92.70;;;;;;4936148;29;20504;-71
2022/03/18 08:41:07;;;;;;;85.07;37.58;;;5.10;92.70;;;;;;4935517;29;20079;-71
2022/03/18 08:43:35;;;;;;;83.05;35.42;;;5.30;92.60;;;;;;4936135;29;20052;-70
2022/03/18 08:46:03;;;;;;;75.90;34.10;;;5.40;92.60;;;;;;4919340;29;20044;-71
2022/03/18 08:48:31;;;;;;;74.72;35.17;;;5.60;92.60;;;;;;4936196;29;20489;-71
2022/03/18 08:50:58;;;;;;;78.80;31.75;;;5.70;92.60;;;;;;4935860;29;20051;-71
2022/03/18 08:53:26;;;;;;;67.05;29.55;;;5.80;92.60;;;;;;4936248;29;20054;-71
2022/03/18 08:55:56;;;;;;;58.65;25.88;;;6.00;92.60;;;;;;4935003;29;20505;-71
2022/03/18 08:58:24;;;;;;;57.00;23.40;;;6.20;92.60;;;;;;4936242;29;20074;-71
2022/03/18 09:00:52;;;;;;;51.55;21.08;;;6.40;92.60;;;;;;4934378;29;20056;-71
2022/03/18 09:03:20;;;;;;;51.92;21.17;;;6.60;92.60;;;;;;4934890;29;20423;-71
2022/03/18 09:05:48;;;;;;;54.42;20.23;;;6.80;92.60;;;;;;4935588;29;20054;-71
2022/03/18 09:08:15;;;;;;;54.42;20.50;;;6.90;92.50;;;;;;4934799;29;20043;-71
2022/03/18 09:10:43;;;;;;;49.72;18.50;;;7.10;92.50;;;;;;4936015;29;20048;-71
2022/03/18 09:13:11;;;;;;;58.30;16.33;;;7.30;92.40;;;;;;4936008;29;20048;-71
2022/03/18 09:15:39;;;;;;;41.75;15.15;;;7.50;92.40;;;;;;4935709;29;20051;-71
2022/03/18 09:18:06;;;;;;;43.10;15.35;;;7.70;92.30;;;;;;4918014;29;20052;-71
2022/03/18 09:20:34;;;;;;;36.10;14.65;;;7.80;92.20;;;;;;4936018;29;20055;-71
2022/03/18 09:23:04;;;;;;;31.92;11.50;;;8.00;92.10;;;;;;4935624;29;20139;-71
2022/03/18 09:25:31;;;;;;;33.95;11.10;;;8.20;91.90;;;;;;4935009;29;20047;-71
2022/03/18 09:27:59;;;;;;;24.55;9.25;;;8.30;91.70;;;;;;4935383;29;20040;-71
2022/03/18 09:30:47;;;;;;;20.33;7.40;;;8.50;91.50;;;;;;4935823;29;20418;-71
2022/03/18 09:33:15;;;;;;;23.77;6.93;;;8.70;91.30;;;;;;4935858;29;20065;-71
2022/03/18 09:35:43;;;;;;;32.78;8.05;;;8.90;90.70;;;;;;4935191;29;20048;-70
2022/03/18 09:38:11;;;;;;;27.23;7.18;;;9.00;90.20;;;;;;4918656;29;20048;-71
2022/03/18 09:40:40;;;;;;;31.75;7.50;;;9.20;89.80;;;;;;4935102;29;20055;-71
2022/03/18 09:43:33;;;;;;;29.70;7.18;;;9.40;89.30;;;;;;4934215;29;20062;-71
2022/03/18 09:46:03;;;;;;;21.53;7.13;;;9.60;88.80;;;;;;4902300;29;20350;-70
2022/03/18 09:48:51;;;;;;;20.08;6.63;;;9.70;88.40;;;;;;4934814;29;20367;-70
2022/03/18 09:51:19;;;;;;;22.70;5.22;;;9.90;88.00;;;;;;4934323;29;20434;-70
2022/03/18 09:54:08;;;;;;;29.05;5.60;;;10.10;87.40;;;;;;4929704;29;20052;-71
2022/03/18 09:56:39;;;;;;;23.55;4.72;;;10.40;86.80;;;;;;4935025;29;20047;-71
2022/03/18 09:59:07;;;;;;;23.33;4.70;;;10.60;86.30;;;;;;4934586;29;20493;-71
2022/03/18 10:01:41;;;;;;;21.17;5.10;;;10.70;85.70;;;;;;4920521;29;20058;-71
2022/03/18 10:04:15;;;;;;;27.10;5.30;;;10.80;84.90;;;;;;4932772;29;20048;-70
2022/03/18 10:06:43;;;;;;;23.42;4.60;;;11.00;84.50;;;;;;4934664;29;20048;-70
2022/03/18 10:09:12;;;;;;;19.73;3.97;;;11.10;84.10;;;;;;4935226;29;20048;-70
2022/03/18 10:11:43;;;;;;;18.88;4.70;;;11.30;82.70;;;;;;4917234;29;20062;-69
2022/03/18 10:14:16;;;;;;;22.80;4.40;;;11.30;81.80;;;;;;4934715;29;20256;-69
2022/03/18 10:16:48;;;;;;;22.92;6.43;;;11.50;81.10;;;;;;4934955;29;20058;-69
2022/03/18 10:19:17;;;;;;;19.33;5.07;;;11.60;80.60;;;;;;4917625;29;20055;-69
2022/03/18 10:22:03;;;;;;;22.63;4.97;;;11.70;79.90;;;;;;4934601;29;20387;-69
2022/03/18 10:24:34;;;;;;;21.38;5.60;;;11.80;79.80;;;;;;4934375;29;20043;-69
2022/03/18 10:27:14;;;;;;;20.60;5.75;;;11.90;79.50;;;;;;4934060;29;20056;-69
2022/03/18 10:29:54;;;;;;;22.08;5.32;;;12.00;78.80;;;;;;4934081;29;20052;-68
2022/03/18 10:32:24;;;;;;;25.23;5.95;;;12.10;78.60;;;;;;4916035;29;20505;-68
2022/03/18 10:37:39;;;;;;;23.55;6.00;;;12.20;77.30;;;;;;4917982;29;20051;-68
2022/03/18 10:40:07;;;;;;;33.08;5.68;;;12.30;77.30;;;;;;4935129;29;20059;-68
2022/03/18 10:42:35;;;;;;;22.48;4.20;;;12.30;77.00;;;;;;4938890;29;20053;-68
2022/03/18 10:45:04;;;;;;;21.10;4.70;;;12.20;76.90;;;;;;4938598;29;20059;-68
2022/03/18 10:47:34;;;;;;;22.65;5.10;;;12.30;76.60;;;;;;4938769;29;20063;-68
2022/03/18 10:50:11;;;;;;;19.98;4.47;;;12.30;76.00;;;;;;4938272;29;20059;-68
2022/03/18 10:52:48;;;;;;;18.98;4.03;;;12.30;75.80;;;;;;4938470;29;20058;-68
2022/03/18 10:55:18;;;;;;;25.95;5.07;;;12.40;75.30;;;;;;4938619;29;20051;-68
2022/03/18 10:57:52;;;;;;;21.42;5.00;;;12.50;75.10;;;;;;4921583;29;20052;-68
2022/03/18 11:00:22;;;;;;;19.90;4.88;;;12.70;74.90;;;;;;4937882;29;20044;-67
2022/03/18 11:02:58;;;;;;;29.02;4.88;;;12.80;73.90;;;;;;4920734;29;20229;-70
2022/03/18 11:05:34;;;;;;;19.45;4.25;;;12.80;73.40;;;;;;4920788;29;20750;-70
2022/03/18 11:08:05;;;;;;;19.73;4.28;;;13.00;73.00;;;;;;4936752;29;20051;-69
2022/03/18 11:13:27;;;;;;;;;;;13.20;71.70;;;;;;4938779;29;20048;-70
2022/03/18 11:15:56;;;;;;;24.50;4.57;;;13.20;70.90;;;;;;4937548;29;20373;-69
2022/03/18 11:18:29;;;;;;;24.08;4.30;;;13.30;70.40;;;;;;4936655;29;20387;-69
2022/03/18 11:21:01;;;;;;;17.08;3.92;;;13.30;70.30;;;;;;4938056;29;20051;-69
2022/03/18 11:23:30;;;;;;;18.27;4.25;;;13.30;69.90;;;;;;4937757;29;20047;-69
2022/03/18 11:26:02;;;;;;;18.60;4.10;;;13.40;69.60;;;;;;4937542;29;20047;-69
2022/03/18 11:28:30;;;;;;;16.52;3.90;;;13.50;69.50;;;;;;4937702;29;20058;-69
2022/03/18 11:31:06;;;;;;;17.17;3.97;;;13.50;69.40;;;;;;4936506;29;20094;-70
2022/03/18 11:33:37;;;;;;;19.38;4.28;;;13.80;69.60;;;;;;4937818;29;20044;-71
2022/03/18 11:36:14;;;;;;;16.58;4.43;;;13.90;69.00;;;;;;4937223;29;20059;-71
2022/03/18 11:38:57;;;;;;;16.98;4.90;;;14.00;68.20;;;;;;4936783;29;20382;-69
2022/03/18 11:41:43;;;;;;;22.23;5.28;;;14.00;67.70;;;;;;4936656;29;20071;-67
2022/03/18 11:44:31;;;;;;;18.02;5.13;;;14.00;67.60;;;;;;4925149;29;20051;-69
2022/03/18 11:47:30;;;;;;;23.00;4.95;;;14.00;68.10;;;;;;4937378;29;20047;-69
2022/03/18 11:50:38;;;;;;;22.70;5.18;;;14.20;68.30;;;;;;4933307;29;20536;-68
2022/03/18 11:53:06;;;;;;;27.52;6.28;;;14.50;67.90;;;;;;4930907;29;20421;-69
2022/03/18 11:55:34;;;;;;;22.88;5.47;;;14.60;67.20;;;;;;4936109;29;20051;-69
2022/03/18 11:58:30;;;;;;;21.95;5.13;;;14.70;66.90;;;;;;4936893;29;20048;-69
2022/03/18 12:00:58;;;;;;;21.55;5.47;;;14.90;67.10;;;;;;4937250;29;20055;-70
2022/03/18 12:03:30;;;;;;;19.25;4.82;;;15.00;65.90;;;;;;4936248;29;20055;-70
2022/03/18 12:06:00;;;;;;;22.73;5.35;;;15.00;64.60;;;;;;4919324;29;20060;-67
2022/03/18 12:08:54;;;;;;;23.92;4.72;;;15.00;64.80;;;;;;4936896;29;20051;-68
2022/03/18 12:11:26;;;;;;;26.15;5.78;;;15.00;64.70;;;;;;4915230;29;20052;-68
2022/03/18 12:13:54;;;;;;;23.05;5.00;;;15.10;64.70;;;;;;4917999;29;20384;-68
2022/03/18 12:16:22;;;;;;;22.60;5.22;;;15.30;65.20;;;;;;4936187;29;20125;-70
2022/03/18 12:19:01;;;;;;;23.50;5.38;;;15.60;64.50;;;;;;4936627;29;20044;-69
2022/03/18 12:21:38;;;;;;;22.40;4.70;;;16.00;63.70;;;;;;4919687;29;20078;-69
2022/03/18 12:24:08;;;;;;;20.52;4.80;;;16.30;63.60;;;;;;4933432;29;20055;-69
2022/03/18 12:26:38;;;;;;;21.75;5.45;;;16.70;61.80;;;;;;4936433;29;20058;-69
2022/03/18 12:29:07;;;;;;;19.20;4.70;;;17.00;61.40;;;;;;4936641;29;20062;-69
2022/03/18 12:31:35;;;;;;;20.63;4.55;;;17.30;60.10;;;;;;4936684;29;20061;-69
2022/03/18 12:34:07;;;;;;;19.70;4.95;;;17.50;59.70;;;;;;4936498;29;20051;-70
2022/03/18 12:36:40;;;;;;;20.38;4.80;;;17.80;59.40;;;;;;4936743;29;20375;-69
2022/03/18 12:39:10;;;;;;;22.92;5.07;;;18.00;57.80;;;;;;4936571;29;20051;-69
2022/03/18 12:41:40;;;;;;;22.98;5.40;;;18.20;57.30;;;;;;4919103;29;20066;-69
2022/03/18 12:44:29;;;;;;;16.48;4.25;;;18.50;57.30;;;;;;4936489;29;20063;-69
2022/03/18 12:46:59;;;;;;;21.00;4.80;;;18.80;55.80;;;;;;4927149;29;20048;-69
2022/03/18 12:49:37;;;;;;;16.45;3.95;;;19.20;55.80;;;;;;4919343;29;20480;-68
2022/03/18 12:52:09;;;;;;;16.63;4.00;;;19.40;52.30;;;;;;4926571;29;20071;-68
2022/03/18 12:54:37;;;;;;;14.65;3.90;;;19.50;51.20;;;;;;4936132;29;20039;-68
2022/03/18 12:57:14;;;;;;;15.13;3.50;;;19.60;51.40;;;;;;4918865;29;20046;-69
2022/03/18 12:59:44;;;;;;;14.35;3.67;;;19.80;51.90;;;;;;4925531;29;20039;-68
2022/03/18 13:02:35;;;;;;;13.45;3.85;;;20.00;49.50;;;;;;4935661;29;20047;-68
2022/03/18 13:05:05;;;;;;;16.05;4.10;;;20.10;48.00;;;;;;4936004;29;20050;-69
2022/03/18 13:07:33;;;;;;;15.55;4.28;;;20.10;48.20;;;;;;4935241;29;20059;-69
2022/03/18 13:10:03;;;;;;;16.90;4.30;;;20.30;48.50;;;;;;4936014;29;20054;-70